Time;durP1;ratioP1;P1;durP2;ratioP2;P2;SDS_P1;SDS_P2;PMS_P1;PMS_P2;Temp;Humidity;BMP_temperature;BMP_pressure;BME280_temperature;BME280_humidity;BME280_pressure;Samples;Min_cycle;Max_cycle;Signal;HPM_P1;HPM_P2
2021/01/09 00:00:56;;;;;;;6.03;3.17;;;;;;;-0.01;100.00;94696.94;5066400;28;20123;-69
2021/01/09 00:03:22;;;;;;;6.00;2.10;;;;;;;0.11;100.00;94741.69;5066391;28;20037;-69
2021/01/09 00:05:52;;;;;;;5.68;2.88;;;;;;;0.05;100.00;94737.22;5065934;28;20037;-69
2021/01/09 00:08:20;;;;;;;6.18;2.90;;;;;;;0.02;100.00;94737.56;5064818;28;20039;-69
2021/01/09 00:10:49;;;;;;;5.65;3.47;;;;;;;0.05;100.00;94732.09;5063315;28;20484;-69
2021/01/09 00:13:16;;;;;;;11.80;3.90;;;;;;;0.01;100.00;94730.84;5065290;28;20093;-69
2021/01/09 00:15:42;;;;;;;4.97;3.67;;;;;;;-0.05;100.00;94734.09;5066298;28;20115;-69
2021/01/09 00:18:09;;;;;;;5.93;3.58;;;;;;;-0.08;100.00;94731.84;5066009;28;20414;-69
2021/01/09 00:20:35;;;;;;;8.88;3.30;;;;;;;0.03;100.00;94739.16;5065117;28;20036;-69
2021/01/09 00:23:02;;;;;;;5.50;2.38;;;;;;;-0.06;100.00;94746.06;5066381;28;20045;-69
2021/01/09 00:25:28;;;;;;;6.75;3.05;;;;;;;-0.09;100.00;94766.09;5064720;28;20044;-69
2021/01/09 00:27:54;;;;;;;4.13;3.00;;;;;;;-0.12;100.00;94763.88;5066343;28;20033;-69
2021/01/09 00:30:21;;;;;;;6.03;3.55;;;;;;;-0.12;100.00;94751.88;5065931;28;20041;-69
2021/01/09 00:32:47;;;;;;;6.60;3.30;;;;;;;-0.09;100.00;94750.72;5065699;28;20115;-69
2021/01/09 00:35:14;;;;;;;5.55;3.55;;;;;;;-0.11;100.00;94747.53;5064891;28;20486;-70
2021/01/09 00:37:40;;;;;;;4.40;2.83;;;;;;;-0.02;100.00;94767.00;5063660;28;20036;-70
2021/01/09 00:40:07;;;;;;;6.18;2.58;;;;;;;-0.05;100.00;94757.13;5064085;28;20425;-70
2021/01/09 00:42:41;;;;;;;3.10;1.83;;;;;;;-0.02;100.00;94761.88;5065931;28;20647;-69
2021/01/09 00:45:09;;;;;;;3.72;2.10;;;;;;;-0.04;100.00;94758.69;5065834;28;20047;-69
2021/01/09 00:47:35;;;;;;;5.18;1.90;;;;;;;-0.08;100.00;94767.69;5064732;28;20045;-70
2021/01/09 00:50:03;;;;;;;4.70;2.45;;;;;;;-0.09;100.00;94766.91;5064631;28;20554;-70
2021/01/09 00:52:30;;;;;;;6.18;2.05;;;;;;;-0.11;100.00;94773.13;5065914;28;20035;-70
2021/01/09 00:54:57;;;;;;;4.47;2.80;;;;;;;-0.05;100.00;94769.94;5067656;28;20079;-70
2021/01/09 00:57:23;;;;;;;4.35;1.85;;;;;;;-0.09;100.00;94750.72;5069446;28;20040;-70
2021/01/09 00:59:50;;;;;;;6.75;2.60;;;;;;;0.02;100.00;94755.50;5069234;28;20037;-70
2021/01/09 01:02:17;;;;;;;2.22;1.60;;;;;;;0.00;100.00;94744.63;5068576;28;20067;-71
2021/01/09 01:04:43;;;;;;;2.83;1.50;;;;;;;0.00;100.00;94749.75;5067481;28;20116;-70
2021/01/09 01:07:09;;;;;;;4.60;2.40;;;;;;;0.01;100.00;94764.13;5068914;28;20524;-70
2021/01/09 01:09:36;;;;;;;3.47;2.17;;;;;;;-0.06;100.00;94768.31;5069558;28;20033;-70
2021/01/09 01:12:03;;;;;;;5.68;3.00;;;;;;;-0.07;100.00;94774.41;5068321;28;20037;-70
2021/01/09 01:14:29;;;;;;;6.20;3.58;;;;;;;-0.08;100.00;94767.69;5068238;28;20040;-71
2021/01/09 01:16:55;;;;;;;9.25;5.13;;;;;;;-0.06;100.00;94786.25;5069474;28;20043;-70
2021/01/09 01:19:22;;;;;;;11.05;4.10;;;;;;;-0.11;100.00;94778.25;5068807;28;20577;-70
2021/01/09 01:21:49;;;;;;;9.90;4.75;;;;;;;-0.20;100.00;94775.75;5067956;28;20032;-71
2021/01/09 01:24:15;;;;;;;11.75;6.50;;;;;;;-0.08;100.00;94783.06;5069656;28;20037;-71
2021/01/09 01:26:41;;;;;;;10.95;5.63;;;;;;;-0.14;100.00;94783.72;5069455;28;20074;-70
2021/01/09 01:29:08;;;;;;;7.32;4.85;;;;;;;-0.10;100.00;94784.97;5069275;28;20039;-70
2021/01/09 01:31:35;;;;;;;10.68;5.40;;;;;;;-0.05;100.00;94777.59;5069651;28;20037;-70
2021/01/09 01:34:01;;;;;;;7.68;5.13;;;;;;;-0.06;100.00;94761.44;5069249;28;20440;-70
2021/01/09 01:36:28;;;;;;;9.48;4.63;;;;;;;0.03;100.00;94763.97;5069096;28;20130;-70
2021/01/09 01:38:54;;;;;;;6.47;3.55;;;;;;;-0.04;100.00;94779.19;5069623;28;20044;-70
2021/01/09 01:41:20;;;;;;;4.97;2.92;;;;;;;0.00;100.00;94783.03;5067898;28;20041;-70
2021/01/09 01:43:47;;;;;;;6.90;3.03;;;;;;;-0.06;100.00;94770.88;5069193;28;20532;-70
2021/01/09 01:46:13;;;;;;;4.45;2.85;;;;;;;-0.05;100.00;94785.28;5069404;28;20068;-71
2021/01/09 01:48:40;;;;;;;5.22;2.95;;;;;;;-0.14;100.00;94783.72;5068279;28;20045;-71
2021/01/09 01:51:06;;;;;;;5.13;3.20;;;;;;;-0.08;100.00;94785.63;5068690;28;20053;-71
2021/01/09 01:53:33;;;;;;;6.30;3.97;;;;;;;-0.11;100.00;94768.84;5068139;28;20037;-71
2021/01/09 01:56:01;;;;;;;5.28;2.95;;;;;;;-0.13;100.00;94764.81;5068844;28;20049;-71
2021/01/09 01:58:27;;;;;;;7.30;4.55;;;;;;;-0.06;100.00;94766.53;5069383;28;20111;-71
2021/01/09 02:00:53;;;;;;;6.57;4.18;;;;;;;0.00;100.00;94780.47;5069091;28;20119;-71
2021/01/09 02:03:21;;;;;;;4.45;2.78;;;;;;;-0.03;100.00;94780.78;5068875;28;20414;-71
2021/01/09 02:06:10;;;;;;;5.45;3.38;;;;;;;0.08;100.00;94770.19;5068503;28;20114;-71
2021/01/09 02:08:44;;;;;;;3.47;2.58;;;;;;;0.07;100.00;94776.25;5069120;28;20032;-71
2021/01/09 02:11:36;;;;;;;5.13;3.40;;;;;;;-0.02;100.00;94777.25;5068829;28;20037;-71
2021/01/09 02:14:08;;;;;;;3.95;2.92;;;;;;;-0.12;100.00;94756.97;5053002;28;20059;-71
2021/01/09 02:16:35;;;;;;;6.00;3.20;;;;;;;-0.03;100.00;94780.78;5068928;28;20044;-70
2021/01/09 02:19:07;;;;;;;4.63;3.00;;;;;;;-0.12;100.00;94774.13;5067263;28;20153;-70
2021/01/09 02:21:40;;;;;;;6.35;3.10;;;;;;;-0.06;100.00;94773.44;5068955;28;20040;-71
2021/01/09 02:24:18;;;;;;;9.68;2.63;;;;;;;-0.02;100.00;94782.38;5067573;28;20449;-71
2021/01/09 02:26:50;;;;;;;6.22;2.80;;;;;;;-0.08;100.00;94777.94;5068098;28;20390;-71
2021/01/09 02:29:17;;;;;;;5.40;3.28;;;;;;;-0.17;100.00;94789.16;5068835;28;20040;-71
2021/01/09 02:32:05;;;;;;;3.55;2.67;;;;;;;-0.06;100.00;94791.38;5068815;28;20055;-70
2021/01/09 02:34:48;;;;;;;4.57;2.92;;;;;;;-0.08;100.00;94788.19;5067633;28;20124;-70
2021/01/09 02:37:14;;;;;;;6.60;3.63;;;;;;;-0.18;100.00;94767.09;5067024;28;20063;-71
2021/01/09 02:39:41;;;;;;;7.03;4.07;;;;;;;-0.06;100.00;94783.69;5067282;28;20051;-70
2021/01/09 02:42:08;;;;;;;9.63;4.30;;;;;;;-0.06;100.00;94786.25;5067954;28;20040;-70
2021/01/09 02:44:37;;;;;;;7.75;4.53;;;;;;;-0.10;100.00;94772.97;5068302;28;20043;-71
2021/01/09 02:47:06;;;;;;;7.22;4.85;;;;;;;-0.10;100.00;94759.38;5068015;28;20037;-71
2021/01/09 02:49:33;;;;;;;11.23;4.65;;;;;;;-0.08;100.00;94767.69;5068286;28;20040;-70
2021/01/09 02:51:59;;;;;;;9.43;5.45;;;;;;;0.01;100.00;94776.94;5068065;28;20493;-70
2021/01/09 02:54:26;;;;;;;10.10;5.05;;;;;;;-0.05;100.00;94777.59;5067747;28;20459;-70
2021/01/09 02:56:53;;;;;;;8.70;5.43;;;;;;;-0.04;100.00;94794.56;5068295;28;20040;-70
2021/01/09 02:59:19;;;;;;;17.38;6.18;;;;;;;0.01;100.00;94789.72;5066698;28;20032;-70
2021/01/09 03:01:48;;;;;;;17.08;8.10;;;;;;;-0.02;100.00;94797.75;5067875;28;20585;-70
2021/01/09 03:04:16;;;;;;;10.30;6.50;;;;;;;0.03;100.00;94790.38;5067040;28;20038;-70
2021/01/09 03:06:42;;;;;;;12.75;7.82;;;;;;;0.04;100.00;94788.59;5066569;28;20119;-70
2021/01/09 03:09:08;;;;;;;16.50;6.82;;;;;;;0.01;100.00;94776.94;5066387;28;20062;-70
2021/01/09 03:11:35;;;;;;;16.92;5.38;;;;;;;-0.09;100.00;94776.31;5066669;28;20086;-70
2021/01/09 03:14:02;;;;;;;9.82;4.90;;;;;;;0.02;100.00;94783.66;5067474;28;20052;-70
2021/01/09 03:16:28;;;;;;;11.90;5.22;;;;;;;-0.05;100.00;94772.50;5067078;28;20040;-70
2021/01/09 03:18:55;;;;;;;10.05;4.50;;;;;;;-0.03;100.00;94775.69;5067412;28;20028;-70
2021/01/09 03:21:24;;;;;;;6.63;4.15;;;;;;;-0.05;100.00;94787.84;5067732;28;20041;-70
2021/01/09 03:23:50;;;;;;;6.97;4.70;;;;;;;-0.12;100.00;94774.13;5067027;28;20071;-71
2021/01/09 03:26:17;;;;;;;23.27;11.93;;;;;;;0.06;100.00;94790.03;5067353;28;20048;-71
2021/01/09 03:28:43;;;;;;;10.52;5.32;;;;;;;0.12;100.00;94778.31;5066559;28;20437;-71
2021/01/09 03:31:10;;;;;;;7.97;4.85;;;;;;;0.13;100.00;94774.81;5069033;28;20623;-71
2021/01/09 03:33:36;;;;;;;14.48;6.07;;;;;;;0.09;100.00;94779.47;5066089;28;20045;-71
2021/01/09 03:36:04;;;;;;;9.93;6.43;;;;;;;0.11;100.00;94782.66;5065388;28;20040;-71
2021/01/09 03:38:30;;;;;;;34.30;12.65;;;;;;;0.11;100.00;94782.66;5066341;28;20049;-71
2021/01/09 03:40:57;;;;;;;11.65;6.03;;;;;;;-0.04;100.00;94771.50;5067130;28;20033;-70
2021/01/09 03:43:23;;;;;;;12.90;6.97;;;;;;;-0.02;100.00;94772.13;5067231;28;20044;-71
2021/01/09 03:45:49;;;;;;;10.45;5.93;;;;;;;-0.02;100.00;94777.25;5067275;28;20119;-71
2021/01/09 03:48:16;;;;;;;6.95;5.03;;;;;;;0.01;100.00;94789.72;5067461;28;20115;-70
2021/01/09 03:50:42;;;;;;;8.90;5.43;;;;;;;-0.01;100.00;94783.97;5066167;28;20036;-70
2021/01/09 03:53:09;;;;;;;22.73;13.93;;;;;;;-0.02;100.00;94792.63;5065964;28;20063;-71
2021/01/09 03:55:35;;;;;;;14.98;7.85;;;;;;;-0.03;100.00;94793.59;5068229;28;20056;-71
2021/01/09 03:58:03;;;;;;;20.88;9.52;;;;;;;0.01;100.00;94807.66;5067298;28;20039;-72
2021/01/09 04:00:29;;;;;;;12.88;6.80;;;;;;;-0.04;100.00;94817.59;5065704;28;20467;-71
2021/01/09 04:02:56;;;;;;;9.30;6.35;;;;;;;0.02;100.00;94814.38;5068520;28;20054;-71
2021/01/09 04:05:22;;;;;;;13.05;7.40;;;;;;;0.11;100.00;94818.50;5067073;28;22024;-71
2021/01/09 04:07:48;;;;;;;16.65;8.60;;;;;;;0.21;100.00;94812.38;5066108;28;20123;-71
2021/01/09 04:10:15;;;;;;;8.20;5.65;;;;;;;0.21;100.00;94812.38;5065560;28;20387;-71
2021/01/09 04:12:41;;;;;;;9.07;4.55;;;;;;;0.20;100.00;94816.72;5064768;28;20044;-71
2021/01/09 04:15:08;;;;;;;7.10;4.00;;;;;;;0.15;100.00;94819.78;5066815;28;20413;-71
2021/01/09 04:17:34;;;;;;;6.88;4.43;;;;;;;0.27;100.00;94829.63;5066823;28;20087;-70
2021/01/09 04:20:01;;;;;;;7.20;4.18;;;;;;;0.21;100.00;94843.13;5065502;28;20490;-70
2021/01/09 04:22:28;;;;;;;7.55;3.78;;;;;;;0.12;100.00;94830.34;5066856;28;20032;-70
2021/01/09 04:24:54;;;;;;;6.47;3.92;;;;;;;0.26;100.00;94835.75;5066886;28;20087;-70
2021/01/09 04:27:21;;;;;;;7.90;4.03;;;;;;;0.26;100.00;94840.88;5065306;28;20036;-70
2021/01/09 04:29:47;;;;;;;7.13;4.25;;;;;;;0.24;100.00;94832.56;5070455;28;20036;-70
2021/01/09 04:32:14;;;;;;;4.93;3.20;;;;;;;0.23;100.00;94821.50;5070736;28;20043;-70
2021/01/09 04:34:41;;;;;;;5.45;3.33;;;;;;;0.28;100.00;94844.06;5070436;28;20037;-71
2021/01/09 04:37:07;;;;;;;7.20;2.95;;;;;;;0.23;100.00;94831.75;5070225;28;20041;-71
2021/01/09 04:39:33;;;;;;;9.40;3.55;;;;;;;0.18;100.00;94839.94;5069097;28;20036;-71
2021/01/09 04:42:00;;;;;;;5.45;3.75;;;;;;;0.29;100.00;94837.94;5071362;28;20398;-71
2021/01/09 04:44:26;;;;;;;9.10;4.32;;;;;;;0.22;100.00;94845.53;5070223;28;20086;-70
2021/01/09 04:46:54;;;;;;;5.13;3.40;;;;;;;0.17;100.00;94848.56;5071696;28;20040;-70
2021/01/09 04:49:23;;;;;;;7.95;5.22;;;;;;;0.22;100.00;94840.41;5069856;28;20060;-70
2021/01/09 04:51:51;;;;;;;8.88;4.80;;;;;;;0.21;100.00;94843.13;5070140;28;20047;-71
2021/01/09 04:54:19;;;;;;;6.93;4.18;;;;;;;0.14;100.00;94854.00;5068892;28;20523;-71
2021/01/09 04:56:48;;;;;;;8.32;5.18;;;;;;;0.09;100.00;94846.06;5069709;28;20060;-70
2021/01/09 04:59:15;;;;;;;12.63;7.47;;;;;;;0.08;100.00;94844.44;5069594;28;20037;-70
2021/01/09 05:01:43;;;;;;;12.65;7.32;;;;;;;0.15;100.00;94858.19;5069832;28;20044;-71
2021/01/09 05:04:10;;;;;;;10.18;5.85;;;;;;;0.13;100.00;94860.13;5069514;28;20049;-71
2021/01/09 05:06:41;;;;;;;7.45;4.25;;;;;;;0.10;100.00;94857.88;5068912;28;20040;-70
2021/01/09 05:09:09;;;;;;;8.35;4.30;;;;;;;0.04;100.00;94843.19;5070854;28;20048;-71
2021/01/09 05:11:39;;;;;;;8.63;4.07;;;;;;;0.16;100.00;94857.25;5068057;28;20123;-71
2021/01/09 05:14:06;;;;;;;8.07;3.78;;;;;;;0.22;100.00;94867.75;5067893;28;20036;-70
2021/01/09 05:16:33;;;;;;;7.68;3.80;;;;;;;0.23;100.00;94857.34;5068912;28;20036;-70
2021/01/09 05:19:01;;;;;;;7.40;4.13;;;;;;;0.17;100.00;94861.38;5068813;28;20446;-71
2021/01/09 05:21:28;;;;;;;5.70;3.90;;;;;;;0.22;100.00;94880.56;5067892;28;20047;-71
2021/01/09 05:24:03;;;;;;;9.23;4.65;;;;;;;0.40;100.00;94888.84;5066770;28;20033;-70
2021/01/09 05:26:30;;;;;;;7.45;4.53;;;;;;;0.39;100.00;94907.75;5069316;28;20052;-70
2021/01/09 05:28:59;;;;;;;10.13;4.60;;;;;;;0.13;100.00;94883.16;5067793;28;20032;-70
2021/01/09 05:31:28;;;;;;;9.55;4.20;;;;;;;0.25;100.00;94895.63;5068701;28;20054;-70
2021/01/09 05:33:55;;;;;;;7.03;4.15;;;;;;;0.11;100.00;94900.47;5067387;28;20055;-70
2021/01/09 05:36:22;;;;;;;7.32;4.60;;;;;;;-0.03;100.00;94896.03;5069608;28;20040;-70
2021/01/09 05:38:50;;;;;;;7.25;4.72;;;;;;;0.04;100.00;94903.81;5069843;28;20040;-70
2021/01/09 05:41:19;;;;;;;11.60;5.10;;;;;;;-0.02;100.00;94915.53;5068634;28;20063;-70
2021/01/09 05:44:06;;;;;;;11.70;6.57;;;;;;;0.03;100.00;94922.72;5069774;28;20405;-70
2021/01/09 05:46:37;;;;;;;8.45;5.00;;;;;;;0.00;100.00;94913.63;5068495;28;20044;-70
2021/01/09 05:49:05;;;;;;;8.57;5.57;;;;;;;-0.02;100.00;94926.59;5069557;28;20470;-70
2021/01/09 05:51:34;;;;;;;9.48;5.60;;;;;;;0.01;100.00;94935.69;5069508;28;20536;-70
2021/01/09 05:54:01;;;;;;;8.98;5.97;;;;;;;0.05;100.00;94931.84;5069100;28;20043;-70
2021/01/09 05:56:28;;;;;;;11.00;6.85;;;;;;;-0.05;100.00;94926.13;5068704;28;20037;-70
2021/01/09 05:58:56;;;;;;;9.80;6.15;;;;;;;-0.03;100.00;94940.34;5068928;28;20064;-70
2021/01/09 06:01:28;;;;;;;16.95;8.07;;;;;;;-0.03;100.00;94927.53;5070597;28;20059;-70
2021/01/09 06:04:15;;;;;;;18.42;9.07;;;;;;;-0.07;100.00;94933.97;5069267;28;20472;-70
2021/01/09 06:06:56;;;;;;;21.25;11.15;;;;;;;-0.01;100.00;94947.88;5068332;28;20505;-70
2021/01/09 06:09:33;;;;;;;12.73;7.97;;;;;;;0.00;100.00;94944.34;5069158;28;20052;-70
2021/01/09 06:12:06;;;;;;;13.13;8.07;;;;;;;-0.03;100.00;94935.22;5068930;28;20047;-70
2021/01/09 06:14:35;;;;;;;10.93;7.38;;;;;;;-0.05;100.00;94931.25;5066719;28;20543;-70
2021/01/09 06:17:03;;;;;;;13.55;7.80;;;;;;;0.02;100.00;94932.19;5069185;28;21271;-71
2021/01/09 06:19:31;;;;;;;9.68;6.25;;;;;;;0.00;100.00;94949.47;5068789;28;20042;-70
2021/01/09 06:22:01;;;;;;;16.33;7.88;;;;;;;-0.05;100.00;94931.25;5067479;28;20502;-70
2021/01/09 06:24:28;;;;;;;15.98;8.55;;;;;;;-0.01;100.00;94945.31;5068836;28;20115;-70
2021/01/09 06:26:59;;;;;;;14.10;8.32;;;;;;;0.05;100.00;94957.44;5068315;28;20045;-70
2021/01/09 06:29:27;;;;;;;18.15;8.07;;;;;;;0.08;100.00;94944.31;5067227;28;20451;-70
2021/01/09 06:31:57;;;;;;;14.63;8.80;;;;;;;0.16;100.00;94959.69;5068343;28;20059;-71
2021/01/09 06:34:29;;;;;;;15.63;8.85;;;;;;;0.17;100.00;94971.53;5067169;28;20037;-70
2021/01/09 06:37:03;;;;;;;20.48;11.15;;;;;;;0.15;100.00;94986.25;5068013;28;20058;-71
2021/01/09 06:39:38;;;;;;;25.88;12.20;;;;;;;0.12;100.00;94989.13;5069770;28;20092;-71
2021/01/09 06:42:08;;;;;;;18.15;12.00;;;;;;;0.01;100.00;94992.03;5066928;28;20048;-71
2021/01/09 06:44:35;;;;;;;20.00;11.30;;;;;;;0.18;100.00;95009.00;5068103;28;20107;-71
2021/01/09 06:47:02;;;;;;;20.50;11.32;;;;;;;0.25;100.00;95018.59;5050180;28;20048;-71
2021/01/09 06:49:29;;;;;;;20.23;11.30;;;;;;;0.34;100.00;95015.03;5068043;28;20104;-70
2021/01/09 06:52:01;;;;;;;13.15;8.32;;;;;;;0.17;100.00;94992.00;5065570;28;20044;-70
2021/01/09 06:54:38;;;;;;;15.38;9.45;;;;;;;0.38;100.00;95024.81;5065131;28;20060;-70
2021/01/09 06:57:17;;;;;;;13.88;8.88;;;;;;;0.35;100.00;95024.34;5066790;28;20040;-71
2021/01/09 06:59:50;;;;;;;18.02;9.73;;;;;;;0.28;100.00;95028.50;5066007;28;20037;-70
2021/01/09 07:02:20;;;;;;;12.35;8.15;;;;;;;0.18;100.00;95037.16;5066161;28;20044;-70
2021/01/09 07:05:06;;;;;;;13.43;8.10;;;;;;;0.22;100.00;95049.63;5065254;28;20124;-70
2021/01/09 07:07:37;;;;;;;13.93;8.65;;;;;;;0.27;100.00;95052.53;5067615;28;20044;-71
2021/01/09 07:10:04;;;;;;;14.85;9.27;;;;;;;0.18;100.00;95065.34;5069679;28;20044;-69
2021/01/09 07:12:31;;;;;;;18.20;10.00;;;;;;;0.24;100.00;95063.91;5066493;28;20040;-70
2021/01/09 07:15:01;;;;;;;19.63;9.57;;;;;;;0.17;100.00;95066.28;5066690;28;20086;-70
2021/01/09 07:17:31;;;;;;;14.85;9.57;;;;;;;0.16;100.00;95076.69;5067377;28;20059;-70
2021/01/09 07:20:02;;;;;;;21.05;11.82;;;;;;;0.05;100.00;95075.25;5067813;28;20113;-71
2021/01/09 07:22:31;;;;;;;30.65;15.68;;;;;;;0.18;100.00;95080.72;5068079;28;20105;-71
2021/01/09 07:24:59;;;;;;;26.63;16.13;;;;;;;0.24;100.00;95089.53;5067687;28;20432;-71
2021/01/09 07:27:44;;;;;;;22.02;12.45;;;;;;;0.25;100.00;95098.00;5067963;28;20068;-71
2021/01/09 07:30:18;;;;;;;17.30;11.52;;;;;;;0.17;100.00;95104.72;5066146;28;20037;-70
2021/01/09 07:32:52;;;;;;;24.27;12.63;;;;;;;0.21;100.00;95109.53;5067255;28;20067;-70
2021/01/09 07:35:22;;;;;;;29.02;15.32;;;;;;;0.28;100.00;95110.50;5066804;28;20115;-70
2021/01/09 07:37:51;;;;;;;27.92;14.20;;;;;;;0.25;100.00;95115.94;5067644;28;20524;-71
2021/01/09 07:40:20;;;;;;;21.98;13.73;;;;;;;0.22;100.00;95111.13;5066192;28;20040;-70
2021/01/09 07:42:50;;;;;;;22.63;13.15;;;;;;;0.27;100.00;95129.38;5067452;28;20043;-71
2021/01/09 07:45:19;;;;;;;27.58;13.80;;;;;;;0.24;100.00;95127.16;5066780;28;20545;-70
2021/01/09 07:47:48;;;;;;;22.92;11.73;;;;;;;0.29;100.00;95145.38;5066550;28;20127;-71
2021/01/09 07:50:18;;;;;;;21.38;12.07;;;;;;;0.18;100.00;95144.75;5067173;28;20482;-71
2021/01/09 07:52:46;;;;;;;25.60;12.73;;;;;;;0.11;100.00;95151.47;5067193;28;20127;-71
2021/01/09 07:55:17;;;;;;;23.42;12.98;;;;;;;0.23;100.00;95149.38;5066793;28;20526;-71
2021/01/09 07:57:44;;;;;;;24.38;12.98;;;;;;;0.26;100.00;95149.09;5065914;28;20607;-72
2021/01/09 08:00:14;;;;;;;32.80;16.15;;;;;;;0.25;100.00;95151.78;5068235;28;20037;-69
2021/01/09 08:02:42;;;;;;;29.13;15.05;;;;;;;0.18;100.00;95152.44;5066589;28;20041;-71
2021/01/09 08:05:14;;;;;;;66.47;28.38;;;;;;;0.31;100.00;95156.31;5066011;28;20048;-70
2021/01/09 08:07:54;;;;;;;29.23;13.73;;;;;;;0.25;100.00;95146.69;5067032;28;20422;-70
2021/01/09 08:10:29;;;;;;;45.75;19.60;;;;;;;0.23;100.00;95130.66;5067148;28;20040;-71
2021/01/09 08:13:07;;;;;;;30.98;17.35;;;;;;;0.26;100.00;95153.41;5064531;28;20529;-70
2021/01/09 08:15:35;;;;;;;48.17;23.13;;;;;;;0.35;100.00;95152.47;5066766;28;20056;-71
2021/01/09 08:18:04;;;;;;;38.53;19.48;;;;;;;0.46;100.00;95159.03;5066780;28;20410;-70
2021/01/09 08:20:32;;;;;;;22.30;13.23;;;;;;;0.45;100.00;95158.22;5066508;28;20060;-70
2021/01/09 08:23:07;;;;;;;19.13;12.73;;;;;;;0.41;100.00;95164.63;5068236;28;20040;-70
2021/01/09 08:25:36;;;;;;;35.83;17.48;;;;;;;0.42;100.00;95161.09;5066924;28;20098;-70
2021/01/09 08:28:04;;;;;;;31.33;18.33;;;;;;;0.52;100.00;95169.44;5066492;28;20045;-70
2021/01/09 08:30:35;;;;;;;25.38;13.85;;;;;;;0.55;100.00;95169.09;5067061;28;20044;-69
2021/01/09 08:33:14;;;;;;;52.10;23.25;;;;;;;0.66;100.00;95174.88;5065771;28;20502;-70
2021/01/09 08:35:47;;;;;;;38.30;21.75;;;;;;;0.59;100.00;95155.97;5066565;28;20112;-70
2021/01/09 08:38:14;;;;;;;78.50;41.13;;;;;;;0.69;100.00;95169.44;5066840;28;20048;-70
2021/01/09 08:40:42;;;;;;;31.15;20.10;;;;;;;0.72;100.00;95171.66;5066313;28;20501;-71
2021/01/09 08:43:14;;;;;;;27.70;17.70;;;;;;;0.68;100.00;95173.75;5065375;28;20052;-70
2021/01/09 08:45:47;;;;;;;30.80;21.52;;;;;;;0.69;100.00;95174.56;5066334;28;20040;-70
2021/01/09 08:48:28;;;;;;;26.48;17.42;;;;;;;0.74;100.00;95177.47;5065834;28;20068;-70
2021/01/09 08:51:14;;;;;;;26.75;15.30;;;;;;;0.70;100.00;95176.16;5066441;28;20502;-70
2021/01/09 08:53:43;;;;;;;26.02;15.95;;;;;;;0.74;100.00;95172.31;5065156;28;20132;-68
2021/01/09 08:56:10;;;;;;;35.95;19.13;;;;;;;0.88;100.00;95174.25;5066184;28;20053;-69
2021/01/09 08:58:38;;;;;;;29.55;16.80;;;;;;;0.90;100.00;95167.19;5065557;28;20547;-70
2021/01/09 09:01:11;;;;;;;36.65;18.50;;;;;;;1.02;100.00;95164.28;5066047;28;20036;-69
2021/01/09 09:03:48;;;;;;;32.85;17.63;;;;;;;1.08;100.00;95159.28;5048529;28;20052;-70
2021/01/09 09:06:16;;;;;;;92.47;40.83;;;;;;;1.18;100.00;95153.19;5065196;28;22688;-70
2021/01/09 09:08:43;;;;;;;101.60;39.08;;;;;;;1.19;100.00;95155.59;5066757;28;20036;-69
2021/01/09 09:11:13;;;;;;;219.70;72.95;;;;;;;1.28;100.00;95164.84;5064847;28;20064;-68
2021/01/09 09:13:40;;;;;;;92.30;38.05;;;;;;;1.40;100.00;95151.66;5065229;28;20054;-69
2021/01/09 09:16:19;;;;;;;27.98;14.77;;;;;;;1.30;100.00;95162.91;5068299;28;20476;-68
2021/01/09 09:18:48;;;;;;;130.52;42.58;;;;;;;1.47;100.00;95152.59;5067714;28;20453;-69
2021/01/09 09:21:18;;;;;;;37.88;18.10;;;;;;;1.44;100.00;95142.66;5069597;28;20044;-70
2021/01/09 09:23:54;;;;;;;87.22;30.38;;;;;;;1.44;100.00;95142.66;5070144;28;20116;-69
2021/01/09 09:26:30;;;;;;;96.15;33.65;;;;;;;1.45;100.00;95139.13;5071439;28;20048;-70
2021/01/09 09:28:59;;;;;;;81.32;31.85;;;;;;;1.47;99.95;95132.06;5069127;28;20041;-70
2021/01/09 09:31:32;;;;;;;30.77;17.02;;;;;;;1.45;100.00;95136.56;5069364;28;20043;-71
2021/01/09 09:34:14;;;;;;;31.80;16.10;;;;;;;1.50;100.00;95132.53;5069949;28;20055;-69
2021/01/09 09:36:58;;;;;;;28.13;15.48;;;;;;;1.38;100.00;95133.06;5067048;28;20048;-69
2021/01/09 09:39:25;;;;;;;24.50;16.00;;;;;;;1.41;100.00;95143.81;5067917;28;20045;-69
2021/01/09 09:42:03;;;;;;;138.55;48.45;;;;;;;1.43;100.00;95141.06;5068838;28;20059;-70
2021/01/09 09:44:40;;;;;;;28.92;14.57;;;;;;;1.53;100.00;95136.53;5069680;28;20037;-71
2021/01/09 09:47:09;;;;;;;46.50;21.55;;;;;;;1.37;100.00;95127.13;5069231;28;20044;-71
2021/01/09 09:49:38;;;;;;;33.42;19.80;;;;;;;1.44;100.00;95132.38;5069205;28;20093;-70
2021/01/09 09:52:18;;;;;;;44.45;23.65;;;;;;;1.49;100.00;95140.41;5069047;28;20043;-70
2021/01/09 09:54:45;;;;;;;74.28;33.45;;;;;;;1.44;100.00;95122.13;5069728;28;20406;-71
2021/01/09 09:57:22;;;;;;;50.42;27.45;;;;;;;1.44;100.00;95137.53;5068014;28;20045;-72
2021/01/09 10:00:08;;;;;;;26.90;17.23;;;;;;;1.24;100.00;95137.94;5067747;28;20136;-71
2021/01/09 10:02:56;;;;;;;30.23;17.55;;;;;;;1.15;100.00;95133.75;5066873;28;20045;-71
2021/01/09 10:05:24;;;;;;;29.73;18.00;;;;;;;1.09;100.00;95134.44;5069163;28;20068;-70
2021/01/09 10:08:06;;;;;;;36.78;17.15;;;;;;;1.03;100.00;95119.72;5068676;28;20080;-70
2021/01/09 10:10:33;;;;;;;31.55;18.45;;;;;;;1.10;100.00;95121.44;5066999;28;20506;-71
2021/01/09 10:12:59;;;;;;;45.78;21.33;;;;;;;1.19;100.00;95114.53;5068630;28;20482;-68
2021/01/09 10:15:26;;;;;;;67.25;25.60;;;;;;;1.34;100.00;95110.28;5066941;28;20048;-70
2021/01/09 10:18:00;;;;;;;61.10;28.20;;;;;;;1.27;100.00;95117.06;5068430;28;20051;-70
2021/01/09 10:20:27;;;;;;;45.58;27.02;;;;;;;1.11;100.00;95127.38;5068269;28;20513;-71
2021/01/09 10:22:55;;;;;;;52.08;29.63;;;;;;;1.11;100.00;95114.53;5066994;28;20164;-70
2021/01/09 10:25:22;;;;;;;65.72;37.38;;;;;;;1.20;100.00;95116.13;5068588;28;20041;-70
2021/01/09 10:27:51;;;;;;;84.68;45.80;;;;;;;1.47;100.00;95127.72;5066198;28;20443;-70
2021/01/09 10:30:19;;;;;;;29.80;18.05;;;;;;;1.46;100.00;95104.78;5065282;28;20497;-69
2021/01/09 10:32:45;;;;;;;29.50;15.82;;;;;;;1.50;100.00;95121.47;5064752;28;20036;-69
2021/01/09 10:35:12;;;;;;;38.38;19.50;;;;;;;1.59;100.00;95125.59;5066506;28;20112;-70
2021/01/09 10:37:38;;;;;;;31.20;16.63;;;;;;;1.65;100.00;95122.34;5066211;28;20102;-69
2021/01/09 10:40:05;;;;;;;30.20;15.77;;;;;;;1.70;100.00;95125.22;5065079;28;20162;-68
2021/01/09 10:42:32;;;;;;;33.08;16.90;;;;;;;1.72;100.00;95125.84;5066624;28;20040;-68
2021/01/09 10:44:59;;;;;;;36.70;19.52;;;;;;;1.74;100.00;95112.84;5066638;28;20488;-70
2021/01/09 10:47:25;;;;;;;28.40;17.23;;;;;;;1.82;99.82;95104.28;5066434;28;20048;-70
2021/01/09 10:50:13;;;;;;;26.25;16.35;;;;;;;1.86;99.92;95101.22;5067444;28;20041;-69
2021/01/09 10:52:40;;;;;;;61.58;26.50;;;;;;;1.91;99.91;95109.22;5066660;28;20464;-69
2021/01/09 10:55:06;;;;;;;31.35;18.95;;;;;;;1.77;99.26;95106.59;5066623;28;20456;-69
2021/01/09 10:57:33;;;;;;;26.85;17.40;;;;;;;1.83;99.36;95116.16;5069445;28;20111;-70
2021/01/09 10:59:59;;;;;;;30.23;17.80;;;;;;;1.82;99.54;95129.97;5069413;28;20505;-70
2021/01/09 11:02:26;;;;;;;53.53;24.08;;;;;;;1.81;99.86;95118.09;5068074;28;20044;-68
2021/01/09 11:04:52;;;;;;;47.63;20.88;;;;;;;1.87;100.00;95113.09;5068157;28;20044;-69
2021/01/09 11:07:18;;;;;;;42.58;21.13;;;;;;;1.95;99.38;95119.94;5062396;28;20036;-70
2021/01/09 11:09:44;;;;;;;25.80;14.82;;;;;;;1.71;98.44;95103.72;5065483;28;20054;-70
2021/01/09 11:12:11;;;;;;;29.95;15.25;;;;;;;1.75;98.14;95113.63;5066566;28;20094;-69
2021/01/09 11:14:37;;;;;;;27.83;16.13;;;;;;;1.65;98.53;95124.91;5063764;28;20051;-70
2021/01/09 11:17:05;;;;;;;25.60;15.57;;;;;;;1.55;99.08;95124.34;5065452;28;20110;-69
2021/01/09 11:19:31;;;;;;;30.15;16.38;;;;;;;1.57;99.46;95137.81;5064671;28;20052;-69
2021/01/09 11:22:01;;;;;;;29.15;17.75;;;;;;;1.40;100.00;95131.13;5065885;28;20040;-70
2021/01/09 11:24:32;;;;;;;48.90;26.60;;;;;;;1.59;99.80;95143.56;5059588;28;20040;-69
2021/01/09 11:27:07;;;;;;;35.03;21.75;;;;;;;1.61;99.94;95144.19;5065024;28;20567;-69
2021/01/09 11:29:34;;;;;;;26.85;16.85;;;;;;;1.49;100.00;95140.41;5063071;28;20116;-68
2021/01/09 11:32:05;;;;;;;50.67;26.67;;;;;;;1.59;100.00;95141.00;5063705;28;20039;-68
2021/01/09 11:34:32;;;;;;;25.85;15.93;;;;;;;1.71;100.00;95133.72;5064552;28;20036;-68